Aviation Digital Data Service (ADDS)

Output produced by METARs form (1105 UTC 13 December 2017)
found at http://www.aviationweather.gov/adds/metars/
 
DAUA 130700Z 09010KT CAVOK 12/M03 Q1018
TAF DAUA 130500Z 1306/1406 11012KT CAVOK 
     PROB40 1308/1316 11024KT 3000 DRSA 
     PROB30 
     TEMPO 1310/1316 11020G30KT 1000 BLSA
       
DABB 130730Z 20005KT 9999 FEW020 SCT033 BKN200 12/11 Q1023
TAF DABB 130500Z 1306/1406 26012KT 9999 FEW020 BKN030 
     PROB30 
     TEMPO 1306/1310 5000 -RA FEW023TCU
       
DABT 130700Z 11006KT CAVOK 02/M01 Q1024
TAF COR DABT 130730Z 1307/1406 29008KT 9999 FEW023 SCT040 
     PROB40 
     TEMPO 1400/1406 1500 BR BKN010
       
DAOR 130700Z 01005KT 9999 FEW033 04/03 Q1023
TAF DAOR 130500Z 1306/1315 35010KT 9999 FEW033
       
DAAE 131050Z 28012KT 9999 SCT020TCU FEW023CB BKN040 15/09 Q1027
TAF DAAE 130500Z 1306/1406 28012KT 8000 FEW020 BKN030 
     PROB40 
     TEMPO 1306/1311 5000 -RA SCT020TCU
       
DAUB 130700Z 31015KT CAVOK 13/05 Q1024
TAF DAUB 130500Z 1306/1406 34012KT 9999 FEW040 SCT200
       
DATM 130700Z 12014KT CAVOK 12/M08 Q1016
DAAD 130700Z 27005KT CAVOK 09/05 Q1026
DAOI 130700Z 00000KT 6000 SCT016 SCT026 BKN100 08/07 Q1027
TAF AMD DAOI 130900Z 1309/1406 VRB02KT 0600 FG BKN006 
     BECMG 1310/1311 3000 BR 
     BECMG 1311/1312 8000 SCT020 
     BECMG 1312/1314 9999 FEW023
       
DABC 130730Z 15003KT 8000 SCT023 BKN100 07/05 Q1024
TAF DABC 130500Z 1306/1406 32007KT 1200 BR FEW020 BKN090 
     PROB40 
     TEMPO 1306/1308 0400 FG BKN010 
     BECMG 1308/1310 8000 NSW 
     PROB40 
     TEMPO 1400/1406 1500 BR FEW010
       
DAAG 130730Z 19003KT 9999 SCT020TCU 09/08 Q1027
TAF DAAG 130500Z 1306/1406 VRB02KT 9999 FEW020 SCT023 
     PROB40 
     TEMPO 1306/1310 5000 -RA FEW020TCU 
     BECMG 1308/1311 30010KT
       
DAAJ 130700Z 32003KT CAVOK 06/M06 Q1023
TAF DAAJ 130500Z 1306/1406 VRB02KT CAVOK
       
DAUE 130700Z 36005KT CAVOK 07/00 Q1022
DAUO 130700Z 20004KT CAVOK 07/02 Q1023
TAF DAUO 130500Z 1306/1315 VRB02KT CAVOK 
     BECMG 1308/1311 31010KT
       
DAUG 130700Z 36011KT CAVOK 09/M01 Q1024
TAF DAUG 130500Z 1306/1406 VRB02KT CAVOK 
     BECMG 1307/1310 06012KT
       
DAUH 130730Z 05002KT 4000 BR NSC 06/01 Q1023
TAF AMD DAUH 130737Z 1307/1406 VRB02KT 3000 BR 
     BECMG 1308/1311 02010KT 6000 NSW
       
DAAP 130700Z 10006KT 9999 SCT026 08/M05 Q1022
TAF DAAP 130500Z 1306/1315 VRB02KT CAVOK
       
DAUZ 130700Z 07008KT CAVOK 05/M02 Q1024
TAF DAUZ 130500Z 1306/1406 08012KT CAVOK
       
TAF DAUI 130500Z 1306/1406 08010KT CAVOK 
     PROB30 1322/1403 06015G25KT 5000 DRSA
       
DAAV 130700Z 17005KT 9999 SCT016 FEW020TCU BKN030 12/10 Q1025
TAF DAAV 130500Z 1306/1406 29012KT 9999 FEW015 BKN030 
     PROB40 
     TEMPO 1306/1311 5000 -RA SCT020TCU
       
DAUL 130700Z 00000KT CAVOK 02/00 Q1025
TAF DAUL 130500Z 1306/1315 VRB02KT CAVOK 
     BECMG 1307/1310 35010KT
       
DAOV 130700Z 00000KT CAVOK 07/06 Q1027
TAF DAOV 130500Z 1306/1315 VRB02KT 8000 SCT010 FEW026 
     BECMG 1307/1309 16005KT 
     BECMG 1310/1312 VRB02KT CAVOK 
     BECMG 1313/1315 VRB02KT
       
DAAY 130700Z 01012KT 8000 SCT010 SCT026 05/04 Q1027
DAOO 130730Z 28002KT 8000 SCT033 04/04 Q1027
TAF DAOO 130500Z 1306/1406 VRB02KT CAVOK 
     BECMG 1315/1318 04005KT 
     BECMG 1321/1324 VRB02KT 20005KT 
     BECMG 1401/1403 VRB02KT
       
DAOL 130700Z 04002KT 8000 FEW030 06/05 Q1027
DAUU 130700Z 34007KT CAVOK 08/01 Q1023
TAF DAUU 130500Z 1306/1315 VRB02KT CAVOK 
     BECMG 1307/1310 02010KT
       
DAAS 130700Z 28006KT 9999 FEW030 SCT233 06/03 Q1025
TAF DAAS 130500Z 1306/1406 29010KT 9999 FEW030 BKN090 
     PROB30 
     TEMPO 1306/1309 5000 -RA FEW023TCU 
     PROB40 
     TEMPO 1400/1406 1500 BR FEW010
       
DAAT 130730Z 07005KT CAVOK 11/M11 Q1024
TAF DAAT 130500Z 1306/1406 08014KT CAVOK 
     BECMG 1310/1313 18010KT 
     PROB30 
     TEMPO 1320/1403 5000 -RA FEW040CB
       
DABS 130700Z 24004KT CAVOK 07/M00 Q1024
TAF COR DABS 130730Z 1307/1406 22006KT 9999 FEW040 SCT100 
     BECMG 1311/1313 32010KT 
     BECMG 1321/1324 12008KT 
     PROB40 
     TEMPO 1400/1406 1500 BR BKN010
       
DAOB 130850Z 23003KT 6000 FEW013 SCT020 06/05 Q1027 REFG
TAF AMD DAOB 130744Z 1307/1406 VRB02KT 1500 BR BKN015 SCT100 
     TEMPO 1307/1309 0400 FG BKN010 
     BECMG 1309/1312 6000 NSW
       
DAFH 130700Z 03012KT CAVOK 05/01 Q1024
DAUT 130700Z 03007KT CAVOK 08/M02 Q1020
TAF DAUT 130500Z 1306/1315 06012KT CAVOK
       
DAOF 130600Z 05010KT CAVOK 08/07 Q1016
TAF DAOF 130500Z 1306/1315 04015KT 8000 FEW040 
     PROB40 
     TEMPO 1307/1314 04015G25KT 3000 DRSA
       
DAON 130730Z 00000KT 9999 FEW030 SCT100 08/07 Q1027
TAF DAON 130500Z 1306/1406 VRB02KT 9999 SCT026 
     BECMG 1315/1318 35005KT 9999 FEW026 
     BECMG 1319/1321 VRB02KT CAVOK
       
DAUK 130700Z 14006KT CAVOK 07/02 Q1024
TAF DAUK 130500Z 1306/1315 VRB02KT CAVOK 
     BECMG 1308/1311 30010KT